Time;durP1;ratioP1;P1;durP2;ratioP2;P2;SDS_P1;SDS_P2;PMS_P1;PMS_P2;Temp;Humidity;BMP_temperature;BMP_pressure;BME280_temperature;BME280_humidity;BME280_pressure;Samples;Min_cycle;Max_cycle;Signal;HPM_P1;HPM_P2
2021/08/13 00:00:10;;;;;;;;;10.25;9.25;;;;;26.71;43.52;101560.09;5080873;28;45325;-49
2021/08/13 00:02:35;;;;;;;;;10.75;10.75;;;;;26.68;43.85;101558.47;5081324;28;45296;-53
2021/08/13 00:05:00;;;;;;;;;12.00;10.50;;;;;26.65;43.23;101560.50;5080800;28;45302;-53
2021/08/13 00:07:25;;;;;;;;;11.75;9.25;;;;;26.60;43.46;101561.69;5081015;28;45353;-52
2021/08/13 00:09:51;;;;;;;;;12.50;11.00;;;;;26.57;43.37;101566.44;5080860;28;45486;-52
2021/08/13 00:12:16;;;;;;;;;12.75;11.00;;;;;26.53;43.78;101563.09;5080808;28;45362;-52
2021/08/13 00:14:42;;;;;;;;;11.00;10.75;;;;;26.49;43.24;101561.56;5080799;28;45300;-53
2021/08/13 00:17:07;;;;;;;;;10.25;9.00;;;;;26.44;43.37;101564.56;5080814;28;45308;-54
2021/08/13 00:19:32;;;;;;;;;10.00;9.50;;;;;26.40;43.73;101563.06;5080595;28;45358;-51
2021/08/13 00:21:58;;;;;;;;;10.25;10.25;;;;;26.36;43.60;101555.28;5080788;27;45412;-52
2021/08/13 00:24:23;;;;;;;;;11.25;11.00;;;;;26.34;43.70;101560.78;5079261;28;45500;-53
2021/08/13 00:26:49;;;;;;;;;12.50;10.25;;;;;26.30;44.05;101558.41;5080336;28;47137;-54
2021/08/13 00:29:14;;;;;;;;;11.25;10.00;;;;;26.24;43.56;101563.25;5080569;28;45330;-51
2021/08/13 00:31:39;;;;;;;;;9.75;9.00;;;;;26.21;43.55;101571.56;5080872;28;45377;-53
2021/08/13 00:34:04;;;;;;;;;11.00;9.75;;;;;26.18;43.86;101577.13;5080381;28;45559;-54
2021/08/13 00:36:30;;;;;;;;;10.00;9.50;;;;;26.13;43.57;101575.72;5080761;28;46425;-53
2021/08/13 00:38:55;;;;;;;;;9.75;9.50;;;;;26.06;44.12;101575.25;5079124;28;45717;-55
2021/08/13 00:41:21;;;;;;;;;8.25;8.25;;;;;26.05;44.21;101576.19;5079052;27;45380;-53
2021/08/13 00:43:47;;;;;;;;;10.75;10.00;;;;;26.01;43.72;101580.94;5080267;28;45189;-53
2021/08/13 00:46:13;;;;;;;;;13.25;10.00;;;;;25.96;43.99;101580.34;5079343;28;45259;-54
2021/08/13 00:48:38;;;;;;;;;9.50;9.50;;;;;25.93;44.26;101581.41;5080147;28;45171;-53
2021/08/13 00:51:04;;;;;;;;;10.00;10.00;;;;;25.89;43.81;101587.13;5080364;28;45411;-53
2021/08/13 00:53:29;;;;;;;;;12.00;10.50;;;;;25.85;44.03;101583.75;5080237;28;45393;-51
2021/08/13 00:55:56;;;;;;;;;12.00;12.00;;;;;25.80;43.77;101589.44;5078821;28;45536;-48
2021/08/13 00:58:22;;;;;;;;;10.75;9.25;;;;;25.77;43.73;101597.72;5078718;28;45351;-50
2021/08/13 01:00:50;;;;;;;;;10.00;10.00;;;;;25.72;44.14;101594.47;5078884;27;45185;-48
2021/08/13 01:03:16;;;;;;;;;13.25;10.50;;;;;25.68;44.05;101597.47;5080011;28;45463;-51
2021/08/13 01:05:42;;;;;;;;;12.00;10.00;;;;;25.62;44.04;101599.59;5080078;28;45253;-48
2021/08/13 01:08:07;;;;;;;;;9.75;9.50;;;;;25.59;43.92;101604.28;5079989;28;45398;-53
2021/08/13 01:10:41;;;;;;;;;13.25;10.00;;;;;25.56;43.59;101596.41;5080086;27;45369;-49
2021/08/13 01:13:11;;;;;;;;;11.00;11.00;;;;;25.52;43.86;101601.16;5078651;28;45287;-51
2021/08/13 01:15:42;;;;;;;;;9.75;9.75;;;;;25.46;43.67;101593.47;5079916;28;45346;-53
2021/08/13 01:18:24;;;;;;;;;8.50;8.50;;;;;25.44;43.54;101596.22;5079811;28;45287;-51
2021/08/13 01:21:14;;;;;;;;;10.25;10.25;;;;;25.40;43.59;101599.25;5079921;28;45326;-53
2021/08/13 01:23:53;;;;;;;;;11.00;9.00;;;;;25.35;43.90;101599.47;5079964;28;45269;-53
2021/08/13 01:26:20;;;;;;;;;12.50;10.50;;;;;25.31;43.70;101596.13;5079541;28;45222;-51
2021/08/13 01:29:16;;;;;;;;;12.75;11.25;;;;;25.27;44.15;101597.28;5079745;28;45238;-53
2021/08/13 01:32:09;;;;;;;;;10.00;10.00;;;;;25.23;43.53;101598.44;5079841;27;45308;-53
2021/08/13 01:34:39;;;;;;;;;10.75;8.00;;;;;25.19;43.92;101587.97;5076178;28;45418;-52
2021/08/13 01:37:05;;;;;;;;;8.75;8.75;;;;;25.15;43.73;101584.59;5079679;28;45310;-53
2021/08/13 01:39:31;;;;;;;;;11.25;10.25;;;;;25.12;43.97;101577.59;5079866;28;45442;-52
2021/08/13 01:41:58;;;;;;;;;10.00;9.50;;;;;25.09;43.86;101591.25;5079270;28;45482;-51
2021/08/13 01:44:25;;;;;;;;;11.50;10.00;;;;;25.06;43.42;101585.19;5078634;28;45968;-53
2021/08/13 01:46:52;;;;;;;;;9.75;8.25;;;;;25.02;44.26;101583.63;5079372;28;47770;-54
2021/08/13 01:49:19;;;;;;;;;11.50;9.75;;;;;24.91;44.03;101573.56;5082964;28;45228;-50
2021/08/13 01:51:46;;;;;;;;;10.25;8.50;;;;;24.96;44.01;101579.50;5083075;27;45352;-53
2021/08/13 01:54:13;;;;;;;;;9.75;8.50;;;;;24.93;44.26;101591.31;5083199;28;45536;-52
2021/08/13 01:56:39;;;;;;;;;9.25;8.25;;;;;24.90;43.77;101590.66;5082619;28;45463;-52
2021/08/13 01:59:05;;;;;;;;;10.25;9.00;;;;;24.85;43.99;101582.84;5082912;28;45170;-52
2021/08/13 02:01:31;;;;;;;;;13.00;11.75;;;;;24.82;43.84;101583.91;5082689;27;45256;-53
2021/08/13 02:03:58;;;;;;;;;10.50;9.75;;;;;24.78;44.26;101597.63;5083022;28;45581;-52
2021/08/13 02:06:24;;;;;;;;;11.25;11.00;;;;;24.74;43.70;101596.09;5082921;28;45547;-53
2021/08/13 02:08:52;;;;;;;;;10.75;9.00;;;;;24.71;44.21;101589.06;5082852;28;45249;-50
2021/08/13 02:11:17;;;;;;;;;10.75;10.75;;;;;24.67;43.89;101591.06;5082797;27;45293;-51
2021/08/13 02:13:43;;;;;;;;;12.00;10.00;;;;;24.65;44.08;101589.44;5082671;28;45314;-54
2021/08/13 02:16:12;;;;;;;;;11.25;11.25;;;;;24.62;44.14;101598.53;5081288;28;48198;-50
2021/08/13 02:18:43;;;;;;;;;10.00;9.00;;;;;24.59;44.16;101593.34;5082866;28;45214;-50
2021/08/13 02:21:12;;;;;;;;;9.00;9.00;;;;;24.56;44.17;101595.34;5082547;28;45293;-49
2021/08/13 02:23:38;;;;;;;;;11.00;9.75;;;;;24.53;44.22;101599.09;5082800;28;45219;-49
2021/08/13 02:26:04;;;;;;;;;12.00;10.50;;;;;24.49;44.30;101597.53;5082062;28;46186;-61
2021/08/13 02:28:29;;;;;;;;;12.50;10.00;;;;;24.46;44.18;101592.34;5081393;28;45292;-65
2021/08/13 02:30:55;;;;;;;;;10.75;9.75;;;;;24.43;44.19;101584.47;5082577;27;45282;-66
2021/08/13 02:33:21;;;;;;;;;10.25;9.00;;;;;24.39;44.16;101583.78;5082594;28;45298;-66
2021/08/13 02:35:49;;;;;;;;;7.25;7.25;;;;;24.37;44.39;101585.69;5082293;27;46275;-65
2021/08/13 02:38:28;;;;;;;;;7.75;7.00;;;;;24.34;44.16;101585.91;5081299;28;45313;-53
2021/08/13 02:41:01;;;;;;;;;7.75;5.75;;;;;24.30;44.35;101587.88;5082013;28;45419;-52
2021/08/13 02:43:35;;;;;;;;;6.75;6.25;;;;;24.29;44.30;101601.41;5082195;28;45247;-53
2021/08/13 02:46:03;;;;;;;;;10.75;9.00;;;;;24.24;44.32;101590.94;5082288;28;45673;-50
2021/08/13 02:48:30;;;;;;;;;7.25;7.00;;;;;24.23;44.34;101593.72;5082176;28;45338;-52
2021/08/13 02:50:59;;;;;;;;;8.25;6.00;;;;;24.18;44.64;101591.28;5082345;27;45323;-53
2021/08/13 02:53:25;;;;;;;;;8.00;6.50;;;;;24.12;44.13;101580.91;5082106;28;45260;-52
2021/08/13 02:55:50;;;;;;;;;10.00;8.25;;;;;24.15;44.07;101583.41;5081865;28;46142;-51
2021/08/13 02:58:19;;;;;;;;;10.00;9.00;;;;;24.12;44.56;101586.28;5081610;28;45237;-52
2021/08/13 03:00:46;;;;;;;;;8.75;8.50;;;;;24.11;44.41;101597.97;5081394;27;45408;-52
2021/08/13 03:03:14;;;;;;;;;7.50;7.50;;;;;24.09;44.31;101591.84;5081924;28;45324;-51
2021/08/13 03:05:44;;;;;;;;;9.00;7.75;;;;;24.07;44.28;101588.38;5081879;28;46141;-52
2021/08/13 03:08:10;;;;;;;;;11.50;8.25;;;;;24.05;44.38;101584.91;5081634;28;45385;-51
2021/08/13 03:10:38;;;;;;;;;7.25;7.00;;;;;24.02;44.02;101584.13;5080791;27;45329;-53
2021/08/13 03:13:05;;;;;;;;;7.50;6.75;;;;;24.01;44.15;101597.63;5081737;28;45310;-52
2021/08/13 03:15:30;;;;;;;;;6.50;6.50;;;;;24.00;44.23;101598.59;5081732;28;45313;-52
2021/08/13 03:17:56;;;;;;;;;5.75;5.75;;;;;23.97;44.56;101604.13;5081722;28;45215;-52
2021/08/13 03:20:22;;;;;;;;;7.00;6.00;;;;;23.93;44.57;101598.06;5081841;28;45212;-52
2021/08/13 03:22:48;;;;;;;;;8.00;7.00;;;;;23.92;44.44;101598.16;5081594;28;45295;-51
2021/08/13 03:25:13;;;;;;;;;7.75;7.00;;;;;23.90;44.64;101602.72;5081505;28;46175;-52
2021/08/13 03:27:43;;;;;;;;;6.75;6.00;;;;;23.88;44.39;101593.91;5081426;28;45362;-51
2021/08/13 03:30:09;;;;;;;;;8.00;8.00;;;;;23.85;44.48;101594.94;5081613;28;45358;-51
2021/08/13 03:32:36;;;;;;;;;6.75;6.50;;;;;23.83;44.46;101604.88;5081445;28;45506;-52
2021/08/13 03:35:02;;;;;;;;;9.00;8.00;;;;;23.78;44.49;101594.41;5081498;27;46844;-51
2021/08/13 03:37:29;;;;;;;;;8.50;7.50;;;;;23.78;44.65;101599.78;5081270;28;45255;-52
2021/08/13 03:39:54;;;;;;;;;7.00;5.00;;;;;23.75;44.82;101604.44;5079989;27;45435;-53
2021/08/13 03:42:19;;;;;;;;;7.00;7.00;;;;;23.74;44.69;101606.28;5081234;28;45354;-53
2021/08/13 03:44:45;;;;;;;;;7.00;6.00;;;;;23.72;44.46;101601.94;5081345;28;46196;-51
2021/08/13 03:47:10;;;;;;;;;7.25;7.25;;;;;23.68;44.49;101612.84;5081178;28;45248;-53
2021/08/13 03:49:35;;;;;;;;;4.25;4.25;;;;;23.66;44.58;101609.38;5081437;28;45305;-53
2021/08/13 03:52:01;;;;;;;;;6.00;6.00;;;;;23.64;44.72;101602.38;5081312;28;45602;-53
2021/08/13 03:54:26;;;;;;;;;8.50;7.00;;;;;23.63;44.68;101606.00;5081140;28;46030;-53
2021/08/13 03:56:51;;;;;;;;;9.25;9.25;;;;;23.59;44.54;101602.63;5080773;28;45350;-52
2021/08/13 03:59:17;;;;;;;;;7.50;7.50;;;;;23.57;44.73;101609.03;5081297;28;45855;-50
2021/08/13 04:01:42;;;;;;;;;8.25;6.00;;;;;23.54;44.71;101602.00;5080827;28;45331;-49
2021/08/13 04:04:07;;;;;;;;;6.50;6.50;;;;;23.51;44.55;101607.56;5081211;28;46200;-52
2021/08/13 04:06:33;;;;;;;;;7.00;7.00;;;;;23.50;44.85;101608.50;5080970;28;45517;-52
2021/08/13 04:08:58;;;;;;;;;7.25;6.25;;;;;23.46;44.70;101599.75;5081440;28;45375;-50
2021/08/13 04:11:23;;;;;;;;;5.75;5.75;;;;;23.45;44.73;101602.53;5080384;28;45307;-51
2021/08/13 04:13:49;;;;;;;;;9.25;7.25;;;;;23.42;44.87;101608.94;5080871;28;45279;-51
2021/08/13 04:16:15;;;;;;;;;8.00;7.00;;;;;23.40;44.66;101616.19;5080894;28;45211;-49
2021/08/13 04:18:40;;;;;;;;;8.75;7.00;;;;;23.36;44.74;101612.81;5079876;28;45191;-49
2021/08/13 04:21:05;;;;;;;;;6.00;6.00;;;;;23.35;45.01;101623.63;5080612;27;45235;-50
2021/08/13 04:23:31;;;;;;;;;4.25;3.50;;;;;23.33;44.91;101628.19;5079687;28;46960;-52
2021/08/13 04:25:56;;;;;;;;;6.00;6.00;;;;;23.31;44.76;101630.09;5080548;28;45303;-51
2021/08/13 04:28:22;;;;;;;;;6.25;6.25;;;;;23.27;45.09;101634.75;5079590;28;45253;-52
2021/08/13 04:30:47;;;;;;;;;7.00;7.00;;;;;23.27;44.65;101632.09;5079398;28;45430;-50
2021/08/13 04:33:14;;;;;;;;;5.25;5.00;;;;;23.25;44.66;101636.66;5080662;28;45187;-52
2021/08/13 04:35:40;;;;;;;;;7.75;6.00;;;;;23.21;45.06;101632.41;5080753;27;45491;-53
2021/08/13 04:38:06;;;;;;;;;5.75;5.00;;;;;23.20;45.02;101623.47;5080805;28;45478;-51
2021/08/13 04:40:32;;;;;;;;;7.50;6.00;;;;;23.18;45.05;101628.09;5080164;27;45310;-48
2021/08/13 04:42:57;;;;;;;;;6.25;6.00;;;;;23.16;45.06;101638.00;5080365;28;45424;-49
2021/08/13 04:45:22;;;;;;;;;4.75;4.75;;;;;23.12;45.13;101625.69;5079173;28;45378;-53
2021/08/13 04:47:48;;;;;;;;;7.00;6.00;;;;;23.12;44.77;101627.50;5080789;28;45471;-48
2021/08/13 04:50:13;;;;;;;;;10.50;6.25;;;;;23.11;44.68;101633.81;5080368;28;45298;-50
2021/08/13 04:52:43;;;;;;;;;6.50;5.25;;;;;23.08;45.04;101640.22;5080382;27;46366;-50
2021/08/13 04:55:09;;;;;;;;;9.25;7.00;;;;;23.07;45.01;101642.94;5080359;28;45561;-49
2021/08/13 04:57:34;;;;;;;;;8.50;7.00;;;;;23.03;45.10;101640.44;5079169;28;45507;-48
2021/08/13 05:00:00;;;;;;;;;7.00;7.00;;;;;23.03;44.91;101647.59;5080160;28;45297;-51
2021/08/13 05:02:26;;;;;;;;;6.00;6.00;;;;;23.02;45.09;101651.25;5080278;28;46006;-50
2021/08/13 05:04:59;;;;;;;;;8.00;6.50;;;;;23.00;44.88;101651.31;5080214;28;45489;-51
2021/08/13 05:07:24;;;;;;;;;7.75;7.75;;;;;22.98;44.90;101647.88;5062277;28;45315;-50
2021/08/13 05:09:49;;;;;;;;;7.00;6.00;;;;;22.96;45.38;101657.78;5079759;28;45465;-50
2021/08/13 05:12:15;;;;;;;;;8.50;6.00;;;;;22.94;44.92;101659.66;5080055;28;46268;-53
2021/08/13 05:14:40;;;;;;;;;7.50;6.25;;;;;22.94;45.34;101659.66;5062065;28;45303;-52
2021/08/13 05:17:05;;;;;;;;;6.00;6.00;;;;;22.93;45.21;101660.63;5080392;28;45366;-51
2021/08/13 05:19:31;;;;;;;;;4.75;4.75;;;;;22.91;45.18;101670.56;5080106;28;45224;-51
2021/08/13 05:21:56;;;;;;;;;7.50;7.50;;;;;22.89;45.32;101667.09;5079879;28;46026;-50
2021/08/13 05:24:22;;;;;;;;;7.25;6.75;;;;;22.87;45.19;101675.22;5083555;28;45305;-51
2021/08/13 05:26:47;;;;;;;;;6.00;5.75;;;;;22.85;45.31;101676.22;5083659;28;45342;-50
2021/08/13 05:29:12;;;;;;;;;17.25;14.75;;;;;22.84;45.63;101685.22;5082144;28;45751;-52
2021/08/13 05:31:38;;;;;;;;;34.00;29.75;;;;;22.83;45.32;101686.16;5083476;27;46031;-51
2021/08/13 05:34:03;;;;;;;;;8.75;7.25;;;;;22.75;45.55;101683.00;5083332;28;45231;-51
2021/08/13 05:36:28;;;;;;;;;8.25;8.25;;;;;22.77;45.31;101695.38;5083709;28;45352;-52
2021/08/13 05:38:54;;;;;;;;;8.50;8.50;;;;;22.77;45.65;101705.25;5083315;28;45225;-52
2021/08/13 05:41:19;;;;;;;;;7.75;6.50;;;;;22.76;45.47;101707.03;5083068;28;46227;-53
2021/08/13 05:43:44;;;;;;;;;7.75;7.00;;;;;22.75;45.43;101704.44;5083183;28;45371;-52
2021/08/13 05:46:11;;;;;;;;;7.25;6.50;;;;;22.74;45.50;101706.25;5083598;28;45507;-51
2021/08/13 05:48:36;;;;;;;;;8.50;8.00;;;;;22.72;45.65;101702.78;5083249;28;45319;-51
2021/08/13 05:51:02;;;;;;;;;7.50;6.75;;;;;22.71;45.51;101703.72;5081777;27;47000;-51
2021/08/13 05:53:28;;;;;;;;;7.00;5.00;;;;;22.70;45.45;101704.66;5081907;28;45243;-51
2021/08/13 05:55:53;;;;;;;;;6.50;6.00;;;;;22.70;45.89;101702.88;5083419;28;45222;-53
2021/08/13 05:58:18;;;;;;;;;6.25;6.25;;;;;22.70;45.58;101704.66;5083035;28;45378;-52
2021/08/13 06:00:44;;;;;;;;;7.00;5.00;;;;;22.71;45.60;101711.75;5083022;27;46023;-51
2021/08/13 06:03:09;;;;;;;;;6.50;6.50;;;;;22.70;45.77;101716.28;5083131;28;45396;-50
2021/08/13 06:05:34;;;;;;;;;8.50;5.75;;;;;22.68;45.41;101711.94;5083212;28;45316;-52
2021/08/13 06:08:00;;;;;;;;;5.75;5.75;;;;;22.71;45.65;101717.13;5081730;28;45269;-52
2021/08/13 06:10:25;;;;;;;;;6.00;5.75;;;;;22.72;46.05;101724.22;5082872;27;45704;-52
2021/08/13 06:12:51;;;;;;;;;5.50;5.50;;;;;22.73;45.63;101725.97;5082808;28;45322;-51
2021/08/13 06:15:17;;;;;;;;;5.75;5.00;;;;;22.74;45.75;101722.31;5083063;28;45248;-52
2021/08/13 06:17:43;;;;;;;;;8.25;6.50;;;;;22.72;45.91;101711.69;5082659;28;45530;-52
2021/08/13 06:20:14;;;;;;;;;6.25;6.25;;;;;22.75;45.74;101712.47;5081071;28;46482;-53
2021/08/13 06:22:40;;;;;;;;;6.50;5.25;;;;;22.77;45.96;101699.88;5082549;28;45323;-52
2021/08/13 06:25:06;;;;;;;;;5.00;5.00;;;;;22.78;45.79;101701.59;5082560;28;45294;-50
2021/08/13 06:27:33;;;;;;;;;6.00;3.00;;;;;22.79;45.84;101706.00;5082489;28;45237;-50
2021/08/13 06:29:58;;;;;;;;;6.50;5.25;;;;;22.81;45.88;101712.19;5081227;27;46412;-52
2021/08/13 06:32:24;;;;;;;;;5.25;5.25;;;;;22.82;45.63;101722.81;5082721;28;45279;-48
2021/08/13 06:34:49;;;;;;;;;6.50;5.50;;;;;22.84;45.74;101723.59;5082317;28;45153;-53
2021/08/13 06:37:14;;;;;;;;;6.00;5.25;;;;;22.83;46.20;101720.97;5081052;28;45558;-54
2021/08/13 06:39:40;;;;;;;;;4.25;4.00;;;;;22.86;45.64;101728.88;5082585;28;46126;-54
2021/08/13 06:42:05;;;;;;;;;4.75;4.75;;;;;22.87;45.53;101733.31;5080592;27;45314;-50
2021/08/13 06:44:31;;;;;;;;;5.75;5.00;;;;;22.87;46.19;101731.47;5081296;28;45355;-53
2021/08/13 06:46:56;;;;;;;;;8.00;7.25;;;;;22.88;46.04;101735.03;5082353;28;45228;-53
2021/08/13 06:49:22;;;;;;;;;12.50;10.75;;;;;22.92;45.83;101743.75;5082100;28;45969;-49
2021/08/13 06:51:47;;;;;;;;;14.00;12.75;;;;;22.91;45.75;101739.38;5082024;27;45223;-48
2021/08/13 06:54:13;;;;;;;;;6.50;6.00;;;;;22.93;45.78;101743.72;5082673;28;45220;-52
2021/08/13 06:56:38;;;;;;;;;6.25;5.50;;;;;22.96;45.96;101743.53;5081940;28;45193;-51
2021/08/13 06:59:03;;;;;;;;;4.25;4.25;;;;;22.99;45.77;101750.56;5080591;28;45520;-52
2021/08/13 07:01:29;;;;;;;;;5.25;5.25;;;;;23.00;45.88;101750.47;5081924;28;45256;-52
2021/08/13 07:03:54;;;;;;;;;7.00;5.75;;;;;22.99;45.97;101739.84;5082403;28;45419;-52
2021/08/13 07:06:20;;;;;;;;;7.25;6.00;;;;;23.03;45.82;101753.03;5081974;28;45386;-50
2021/08/13 07:08:45;;;;;;;;;6.00;4.00;;;;;23.05;46.12;101750.25;5082100;28;46293;-49
2021/08/13 07:11:10;;;;;;;;;5.00;3.75;;;;;23.05;45.51;101753.78;5080375;27;45422;-51
2021/08/13 07:13:36;;;;;;;;;6.25;6.25;;;;;23.08;45.82;101757.28;5082018;28;45319;-52
2021/08/13 07:16:01;;;;;;;;;5.75;4.25;;;;;23.09;46.04;101757.19;5080456;28;45989;-52
2021/08/13 07:18:27;;;;;;;;;4.25;4.25;;;;;23.11;45.87;101765.16;5080667;28;45345;-53
2021/08/13 07:20:52;;;;;;;;;4.50;4.50;;;;;23.12;46.13;101758.84;5081508;27;45376;-51
2021/08/13 07:23:17;;;;;;;;;6.25;5.25;;;;;23.15;45.99;101769.41;5081684;28;45452;-49
2021/08/13 07:25:43;;;;;;;;;6.25;4.00;;;;;23.18;45.80;101769.28;5081629;28;45376;-53
2021/08/13 07:28:08;;;;;;;;;4.50;3.75;;;;;23.18;46.09;101777.31;5080207;28;45383;-50
2021/08/13 07:30:34;;;;;;;;;4.00;4.00;;;;;23.21;46.03;101786.09;5081582;27;45286;-47
2021/08/13 07:32:59;;;;;;;;;7.00;4.50;;;;;23.24;46.16;101790.41;5081762;28;45146;-50
2021/08/13 07:35:24;;;;;;;;;5.50;4.00;;;;;23.24;45.80;101777.00;5080260;28;45516;-53
2021/08/13 07:37:50;;;;;;;;;6.00;5.00;;;;;23.28;45.97;101786.66;5081559;28;46306;-53
2021/08/13 07:40:15;;;;;;;;;5.00;4.75;;;;;23.29;46.13;101783.00;5081242;27;45220;-52
2021/08/13 07:42:41;;;;;;;;;6.50;4.50;;;;;23.32;46.04;101788.22;5081583;28;45322;-48
2021/08/13 07:45:08;;;;;;;;;10.75;4.00;;;;;23.36;45.77;101797.84;5080612;28;45231;-53
2021/08/13 07:47:33;;;;;;;;;7.75;5.00;;;;;23.40;46.08;101800.38;5081173;28;46273;-49
2021/08/13 07:49:59;;;;;;;;;5.00;3.00;;;;;23.41;45.96;101804.78;5081232;27;45253;-50
2021/08/13 07:52:25;;;;;;;;;3.00;3.00;;;;;23.44;45.97;101799.25;5081441;28;45268;-52
2021/08/13 07:54:50;;;;;;;;;5.25;4.50;;;;;23.48;45.77;101808.88;5081083;28;45497;-50
2021/08/13 07:57:17;;;;;;;;;4.50;3.50;;;;;23.53;45.75;101817.53;5081045;28;46107;-52
2021/08/13 07:59:42;;;;;;;;;5.00;3.50;;;;;23.54;45.65;101806.72;5081057;27;45263;-51
2021/08/13 08:02:07;;;;;;;;;6.00;4.00;;;;;23.56;45.94;101806.69;5081009;28;45315;-51
2021/08/13 08:04:33;;;;;;;;;2.75;2.75;;;;;23.60;45.81;101821.66;5079880;28;45351;-52
2021/08/13 08:06:59;;;;;;;;;6.25;3.75;;;;;23.62;45.94;101825.13;5079736;28;46530;-49
2021/08/13 08:09:24;;;;;;;;;3.50;3.50;;;;;23.66;45.71;101832.06;5081092;28;45410;-52
2021/08/13 08:11:51;;;;;;;;;4.00;3.75;;;;;23.69;45.92;101828.34;5080622;28;45244;-50
2021/08/13 08:14:16;;;;;;;;;3.75;3.75;;;;;23.76;45.64;101837.81;5080986;28;45243;-50
2021/08/13 08:16:42;;;;;;;;;3.75;2.50;;;;;23.80;46.01;101841.22;5080526;28;45355;-53
2021/08/13 08:19:07;;;;;;;;;2.25;2.25;;;;;23.84;45.78;101842.78;5080887;28;45421;-50
2021/08/13 08:21:33;;;;;;;;;5.00;3.00;;;;;23.87;45.86;101837.22;5079422;28;45354;-53
2021/08/13 08:23:59;;;;;;;;;5.00;3.25;;;;;23.94;45.78;101848.56;5080589;28;45243;-50
2021/08/13 08:26:24;;;;;;;;;5.00;5.00;;;;;23.97;45.67;101843.03;5080303;28;45458;-51
2021/08/13 08:28:50;;;;;;;;;4.50;3.75;;;;;24.01;45.64;101839.22;5080574;28;45501;-53
2021/08/13 08:31:15;;;;;;;;;3.25;3.25;;;;;24.04;45.78;101846.22;5080721;27;45377;-50
2021/08/13 08:33:40;;;;;;;;;4.00;3.50;;;;;24.11;45.72;101839.59;5080574;27;45350;-52
2021/08/13 08:36:06;;;;;;;;;4.00;4.00;;;;;24.14;45.80;101837.59;5080286;28;52644;-50
2021/08/13 08:38:33;;;;;;;;;2.75;2.25;;;;;24.12;45.36;101822.53;5080721;28;45482;-50
2021/08/13 08:41:02;;;;;;;;;3.25;3.25;;;;;24.24;45.77;101834.41;5080173;28;45463;-52
2021/08/13 08:43:27;;;;;;;;;4.50;4.00;;;;;24.27;45.79;101843.16;5080470;28;45304;-51
2021/08/13 08:45:55;;;;;;;;;2.50;2.50;;;;;24.33;45.79;101852.72;5080154;28;46208;-50
2021/08/13 08:48:21;;;;;;;;;4.75;4.75;;;;;24.34;45.64;101852.63;5080558;28;45482;-51
2021/08/13 08:50:47;;;;;;;;;4.00;4.00;;;;;24.43;45.67;101853.09;5080293;28;45307;-49
2021/08/13 08:53:21;;;;;;;;;5.00;5.00;;;;;24.47;45.31;101863.56;5080263;28;45430;-52
2021/08/13 08:55:47;;;;;;;;;2.75;2.75;;;;;24.55;45.82;101856.91;5078733;28;46091;-52
2021/08/13 08:58:13;;;;;;;;;6.25;3.75;;;;;24.58;45.92;101857.59;5079934;28;45358;-51
2021/08/13 09:00:39;;;;;;;;;2.75;2.75;;;;;24.62;45.63;101853.78;5080214;28;45459;-52
2021/08/13 09:03:06;;;;;;;;;3.25;3.25;;;;;24.65;45.97;101858.13;5080077;28;45263;-51
2021/08/13 09:05:31;;;;;;;;;3.25;3.25;;;;;24.74;45.44;101859.44;5080166;28;46182;-53
2021/08/13 09:07:57;;;;;;;;;3.25;3.25;;;;;24.76;45.42;101852.16;5079919;28;45311;-52
2021/08/13 09:10:22;;;;;;;;;6.00;5.75;;;;;24.79;45.43;101847.50;5080210;28;45393;-52
2021/08/13 09:12:52;;;;;;;;;4.25;3.25;;;;;24.87;45.50;101852.44;5079950;28;45391;-48
2021/08/13 09:15:29;;;;;;;;;4.00;3.25;;;;;24.93;45.71;101845.81;5080043;28;46181;-51
2021/08/13 09:18:18;;;;;;;;;4.75;4.25;;;;;24.98;45.11;101841.91;5079843;28;45185;-52
2021/08/13 09:20:53;;;;;;;;;4.00;3.75;;;;;25.03;45.09;101843.47;5079968;28;45434;-51
2021/08/13 09:23:37;;;;;;;;;3.50;3.50;;;;;25.10;45.35;101839.47;5079759;28;45242;-51
2021/08/13 09:26:05;;;;;;;;;3.75;3.00;;;;;25.17;45.11;101845.34;5079366;28;46390;-52
2021/08/13 09:28:38;;;;;;;;;5.50;5.25;;;;;25.20;45.50;101837.13;5079699;28;45350;-53
2021/08/13 09:31:17;;;;;;;;;6.50;5.50;;;;;25.29;45.08;101845.47;5079784;28;45275;-53
2021/08/13 09:33:47;;;;;;;;;5.75;4.75;;;;;25.33;45.31;101848.00;5079807;28;45306;-53
2021/08/13 09:36:13;;;;;;;;;6.00;5.50;;;;;25.42;45.12;101852.84;5066446;28;46923;-54
2021/08/13 09:38:39;;;;;;;;;5.50;5.00;;;;;25.49;45.25;101848.84;5079636;28;45201;-52
2021/08/13 09:41:06;;;;;;;;;6.00;4.00;;;;;25.54;45.42;101853.97;5079697;28;45343;-52
2021/08/13 09:43:32;;;;;;;;;5.75;5.75;;;;;25.64;45.21;101853.31;5078279;28;45318;-53
2021/08/13 09:46:05;;;;;;;;;5.00;5.00;;;;;25.73;45.26;101845.63;5079552;28;46021;-51
2021/08/13 09:48:31;;;;;;;;;5.00;5.00;;;;;25.80;44.86;101849.69;5079618;28;45272;-51
2021/08/13 09:50:56;;;;;;;;;4.00;2.75;;;;;25.87;45.24;101845.63;5078428;27;45448;-52
2021/08/13 09:53:21;;;;;;;;;5.00;4.25;;;;;25.93;44.78;101844.41;5079647;28;45451;-54
2021/08/13 09:55:47;;;;;;;;;5.00;5.00;;;;;25.98;45.14;101841.44;5079472;28;45271;-54
2021/08/13 09:58:25;;;;;;;;;3.25;3.25;;;;;26.09;44.78;101844.34;5079644;28;45283;-52
2021/08/13 10:00:53;;;;;;;;;6.00;5.50;;;;;26.17;44.75;101839.34;5079555;28;45259;-50
2021/08/13 10:03:19;;;;;;;;;5.00;5.00;;;;;26.26;45.04;101843.28;5079387;28;45189;-53
2021/08/13 10:06:01;;;;;;;;;7.00;6.00;;;;;26.36;44.30;101839.03;5079267;28;46338;-54
2021/08/13 10:08:39;;;;;;;;;4.50;4.00;;;;;26.47;45.07;101843.75;5080021;28;45168;-53
2021/08/13 10:11:14;;;;;;;;;5.00;5.00;;;;;26.56;44.66;101839.59;5082592;27;45251;-53
2021/08/13 10:13:41;;;;;;;;;4.25;4.25;;;;;26.69;44.27;101839.66;5082732;28;45455;-54
2021/08/13 10:16:06;;;;;;;;;5.75;5.75;;;;;26.78;44.27;101836.41;5082778;28;47171;-54
2021/08/13 10:18:35;;;;;;;;;5.50;5.50;;;;;26.91;44.66;101841.84;5082806;28;45362;-54
2021/08/13 10:21:01;;;;;;;;;5.50;5.50;;;;;27.03;44.57;101837.44;5082615;27;45476;-53
2021/08/13 10:23:27;;;;;;;;;6.50;5.25;;;;;27.16;43.98;101845.59;5083117;28;45489;-53
2021/08/13 10:25:58;;;;;;;;;8.00;6.00;;;;;27.27;43.95;101834.06;5082165;28;46143;-54
2021/08/13 10:28:24;;;;;;;;;6.00;6.00;;;;;27.42;44.04;101833.03;5081158;28;45724;-52
2021/08/13 10:30:50;;;;;;;;;9.50;9.25;;;;;27.54;43.74;101840.28;5082589;27;45255;-54
2021/08/13 10:33:18;;;;;;;;;5.00;5.00;;;;;27.68;43.43;101833.06;5082564;28;45413;-53
2021/08/13 10:35:58;;;;;;;;;8.75;6.50;;;;;27.84;43.71;101833.72;5082291;27;45166;-51
2021/08/13 10:38:25;;;;;;;;;8.00;6.00;;;;;27.99;43.60;101826.38;5082512;28;45400;-53
2021/08/13 10:40:51;;;;;;;;;7.25;6.75;;;;;28.16;43.94;101824.31;5081986;28;45291;-54
2021/08/13 10:43:22;;;;;;;;;8.00;8.00;;;;;28.34;43.68;101820.28;5082492;28;45213;-53
2021/08/13 10:45:53;;;;;;;;;5.75;5.75;;;;;28.53;43.66;101817.09;5082149;28;45477;-53
2021/08/13 10:48:27;;;;;;;;;7.75;7.75;;;;;28.81;43.75;101820.47;5081114;28;45430;-54
2021/08/13 10:50:57;;;;;;;;;3.50;3.50;;;;;29.04;43.63;101820.59;5068247;28;45251;-55
2021/08/13 10:53:31;;;;;;;;;5.25;4.75;;;;;29.33;43.25;101821.09;5080850;28;45559;-54
2021/08/13 10:55:59;;;;;;;;;7.00;7.00;;;;;29.62;43.28;101825.22;5081893;28;46345;-54
2021/08/13 10:58:36;;;;;;;;;8.25;7.50;;;;;29.91;42.96;101827.50;5081932;28;45411;-55
2021/08/13 11:01:12;;;;;;;;;7.50;7.50;;;;;30.20;43.20;101825.19;5082209;28;45166;-55
2021/08/13 11:03:43;;;;;;;;;10.75;9.50;;;;;30.51;43.32;101832.66;5081983;28;45198;-55
2021/08/13 11:06:09;;;;;;;;;11.00;11.00;;;;;30.81;42.99;101840.13;5082011;28;45437;-55
2021/08/13 11:08:40;;;;;;;;;7.75;7.00;;;;;31.11;42.31;101825.84;5081905;27;45268;-54
2021/08/13 11:11:09;;;;;;;;;7.25;7.25;;;;;31.42;42.93;101830.47;5081810;27;45420;-55
2021/08/13 11:13:43;;;;;;;;;12.25;9.00;;;;;31.74;42.10;101816.84;5081832;28;45185;-55
2021/08/13 11:16:28;;;;;;;;;8.75;8.75;;;;;32.13;42.09;101823.47;5081576;28;45484;-56
2021/08/13 11:18:59;;;;;;;;;8.75;8.25;;;;;32.49;41.85;101826.59;5081644;28;45333;-56
2021/08/13 11:21:30;;;;;;;;;8.25;8.25;;;;;32.86;41.62;101823.25;5079182;28;45490;-56